createdAt,value
2023-05-14T00:00:59.757Z,9.89
2023-05-14T00:01:59.690Z,9.89
2023-05-14T00:02:59.798Z,9.83
2023-05-14T00:03:59.807Z,9.79
2023-05-14T00:04:59.679Z,9.82
2023-05-14T00:05:59.774Z,9.77
2023-05-14T00:06:59.643Z,9.80
2023-05-14T00:07:59.625Z,9.73
2023-05-14T00:08:59.628Z,9.73
2023-05-14T00:09:59.628Z,9.76
2023-05-14T00:10:59.775Z,9.69
2023-05-14T00:11:59.595Z,9.65
2023-05-14T00:12:59.616Z,9.62
2023-05-14T00:13:59.573Z,9.64
2023-05-14T00:14:59.613Z,9.61
2023-05-14T00:15:59.670Z,9.55
2023-05-14T00:16:59.599Z,9.44
2023-05-14T00:17:59.597Z,9.43
2023-05-14T00:18:59.581Z,9.36
2023-05-14T00:19:59.539Z,9.37
2023-05-14T00:20:59.580Z,9.36
2023-05-14T00:21:59.516Z,9.31
2023-05-14T00:22:59.541Z,9.32
2023-05-14T00:23:59.530Z,9.28
2023-05-14T00:24:59.526Z,9.19
2023-05-14T00:25:59.498Z,9.18
2023-05-14T00:26:59.526Z,9.02
2023-05-14T00:27:59.500Z,9.06
2023-05-14T00:28:59.493Z,9.02
2023-05-14T00:29:59.506Z,9.19
2023-05-14T00:30:59.500Z,9.00
2023-05-14T00:31:59.453Z,9.10
2023-05-14T00:32:59.487Z,9.04
2023-05-14T00:33:59.456Z,9.11
2023-05-14T00:34:59.463Z,8.88
2023-05-14T00:35:59.440Z,9.08
2023-05-14T00:36:59.484Z,8.97
2023-05-14T00:37:59.409Z,9.08
2023-05-14T00:38:59.422Z,9.11
2023-05-14T00:39:59.414Z,9.02
2023-05-14T00:40:59.422Z,8.97
2023-05-14T00:41:59.429Z,8.94
2023-05-14T00:42:59.419Z,8.91
2023-05-14T00:43:59.395Z,8.82
2023-05-14T00:44:59.390Z,8.82
2023-05-14T00:45:59.395Z,8.79
2023-05-14T00:46:59.498Z,8.81
2023-05-14T00:47:59.356Z,8.99
2023-05-14T00:48:59.367Z,9.10
2023-05-14T00:49:59.328Z,9.13
2023-05-14T00:50:59.382Z,9.16
2023-05-14T00:51:59.320Z,9.22
2023-05-14T00:52:59.346Z,9.22
2023-05-14T00:53:59.306Z,9.13
2023-05-14T00:54:59.324Z,9.11
2023-05-14T00:55:59.297Z,9.06
2023-05-14T00:56:59.322Z,8.99
2023-05-14T00:57:59.325Z,9.03
2023-05-14T00:58:59.309Z,9.08
2023-05-14T00:59:59.275Z,9.11
2023-05-14T01:00:59.310Z,9.10
2023-05-14T01:01:59.258Z,9.04
2023-05-14T01:02:59.414Z,8.92
2023-05-14T01:03:59.409Z,8.94
2023-05-14T01:04:59.300Z,8.87
2023-05-14T01:05:59.229Z,8.84
2023-05-14T01:06:59.248Z,8.82
2023-05-14T01:07:59.253Z,8.88
2023-05-14T01:08:59.259Z,8.82
2023-05-14T01:09:59.220Z,8.89
2023-05-14T01:10:59.220Z,8.94
2023-05-14T01:11:59.200Z,8.91
2023-05-14T01:12:59.244Z,8.89
2023-05-14T01:13:59.214Z,8.89
2023-05-14T01:14:59.198Z,8.76
2023-05-14T01:15:59.252Z,8.88
2023-05-14T01:16:59.269Z,8.78
2023-05-14T01:17:59.253Z,8.74
2023-05-14T01:18:59.217Z,8.81
2023-05-14T01:19:59.150Z,8.67
2023-05-14T01:20:59.175Z,8.84
2023-05-14T01:21:59.154Z,8.69
2023-05-14T01:22:59.159Z,8.66
2023-05-14T01:23:59.192Z,8.74
2023-05-14T01:24:59.145Z,8.76
2023-05-14T01:25:59.147Z,8.74
2023-05-14T01:26:59.149Z,8.69
2023-05-14T01:27:59.108Z,8.78
2023-05-14T01:28:59.125Z,8.79
2023-05-14T01:29:59.135Z,8.74
2023-05-14T01:30:59.128Z,8.78
2023-05-14T01:31:59.116Z,8.89
2023-05-14T01:32:59.174Z,8.85
2023-05-14T01:33:59.087Z,8.76
2023-05-14T01:34:59.105Z,8.70
2023-05-14T01:35:59.096Z,8.78
2023-05-14T01:36:59.091Z,8.70
2023-05-14T01:37:59.044Z,8.58
2023-05-14T01:38:59.061Z,8.73
2023-05-14T01:39:59.028Z,8.64
2023-05-14T01:40:59.056Z,8.61
2023-05-14T01:41:59.026Z,8.67
2023-05-14T01:42:59.020Z,8.74
2023-05-14T01:43:59.023Z,8.81
2023-05-14T01:44:59.019Z,8.66
2023-05-14T01:45:59.057Z,8.66
2023-05-14T01:46:59.000Z,8.67
2023-05-14T01:47:59.028Z,8.63
2023-05-14T01:48:59.007Z,8.63
2023-05-14T01:49:58.974Z,8.73
2023-05-14T01:50:58.980Z,8.64
2023-05-14T01:51:58.971Z,8.70
2023-05-14T01:52:58.961Z,8.76
2023-05-14T01:53:58.957Z,8.89
2023-05-14T01:54:58.953Z,8.97
2023-05-14T01:55:58.958Z,8.94
2023-05-14T01:56:58.963Z,8.92
2023-05-14T01:57:58.954Z,8.84
2023-05-14T01:58:58.916Z,8.84
2023-05-14T01:59:58.889Z,8.94
2023-05-14T02:00:58.963Z,8.97
2023-05-14T02:01:58.984Z,9.02
2023-05-14T02:02:58.970Z,8.97
2023-05-14T02:03:58.939Z,9.10
2023-05-14T02:04:58.923Z,9.00
2023-05-14T02:05:58.884Z,9.02
2023-05-14T02:06:58.857Z,9.08
2023-05-14T02:07:58.882Z,9.10
2023-05-14T02:08:58.850Z,9.06
2023-05-14T02:09:58.830Z,8.92
2023-05-14T02:10:58.837Z,9.08
2023-05-14T02:11:58.825Z,9.00
2023-05-14T02:12:58.874Z,9.02
2023-05-14T02:13:58.842Z,8.95
2023-05-14T02:14:58.809Z,8.85
2023-05-14T02:15:58.837Z,8.97
2023-05-14T02:16:58.824Z,8.85
2023-05-14T02:17:58.831Z,8.88
2023-05-14T02:18:58.855Z,8.79
2023-05-14T02:19:58.842Z,8.79
2023-05-14T02:20:58.809Z,8.71
2023-05-14T02:21:58.876Z,8.76
2023-05-14T02:22:58.823Z,8.71
2023-05-14T02:23:58.847Z,8.61
2023-05-14T02:24:58.849Z,8.70
2023-05-14T02:25:58.723Z,8.69
2023-05-14T02:26:58.757Z,8.60
2023-05-14T02:27:58.740Z,8.71
2023-05-14T02:28:58.737Z,8.63
2023-05-14T02:29:58.714Z,8.64
2023-05-14T02:30:58.738Z,8.49
2023-05-14T02:31:58.714Z,8.45
2023-05-14T02:32:58.759Z,8.42
2023-05-14T02:33:58.699Z,8.36
2023-05-14T02:34:58.703Z,8.34
2023-05-14T02:35:58.674Z,8.26
2023-05-14T02:36:58.682Z,8.19
2023-05-14T02:37:58.642Z,8.16
2023-05-14T02:38:58.653Z,8.16
2023-05-14T02:39:58.703Z,8.20
2023-05-14T02:40:58.641Z,8.19
2023-05-14T02:41:58.664Z,8.12
2023-05-14T02:42:58.640Z,8.18
2023-05-14T02:43:58.607Z,8.08
2023-05-14T02:44:58.626Z,8.06
2023-05-14T02:45:58.629Z,8.13
2023-05-14T02:46:58.653Z,8.00
2023-05-14T02:47:58.633Z,8.10
2023-05-14T02:48:58.605Z,8.05
2023-05-14T02:49:58.567Z,8.16
2023-05-14T02:50:58.621Z,8.20
2023-05-14T02:51:58.564Z,8.20
2023-05-14T02:52:58.563Z,8.19
2023-05-14T02:53:58.552Z,8.01
2023-05-14T02:54:58.565Z,8.03
2023-05-14T02:55:58.545Z,7.93
2023-05-14T02:56:58.542Z,7.80
2023-05-14T02:57:58.513Z,7.80
2023-05-14T02:58:58.566Z,7.82
2023-05-14T02:59:58.523Z,7.85
2023-05-14T03:00:58.562Z,7.88
2023-05-14T03:01:58.540Z,7.83
2023-05-14T03:02:58.520Z,7.79
2023-05-14T03:03:58.479Z,7.77
2023-05-14T03:04:58.540Z,7.69
2023-05-14T03:05:58.461Z,7.80
2023-05-14T03:06:58.496Z,7.77
2023-05-14T03:07:58.465Z,7.76
2023-05-14T03:08:58.460Z,7.72
2023-05-14T03:09:58.434Z,7.87
2023-05-14T03:10:58.451Z,7.77
2023-05-14T03:11:58.450Z,7.76
2023-05-14T03:12:58.447Z,7.76
2023-05-14T03:13:58.405Z,7.94
2023-05-14T03:14:58.436Z,7.97
2023-05-14T03:15:58.410Z,8.01
2023-05-14T03:16:58.469Z,7.98
2023-05-14T03:17:58.431Z,7.91
2023-05-14T03:18:58.465Z,7.83
2023-05-14T03:19:58.378Z,7.76
2023-05-14T03:20:58.400Z,7.72
2023-05-14T03:21:58.400Z,7.77
2023-05-14T03:22:58.417Z,7.69
2023-05-14T03:23:58.357Z,7.77
2023-05-14T03:24:58.374Z,7.82
2023-05-14T03:25:58.352Z,7.85
2023-05-14T03:26:58.349Z,7.80
2023-05-14T03:27:58.328Z,7.85
2023-05-14T03:28:58.349Z,7.87
2023-05-14T03:29:58.304Z,7.82
2023-05-14T03:30:58.409Z,7.93
2023-05-14T03:31:58.316Z,8.08
2023-05-14T03:32:58.375Z,8.00
2023-05-14T03:33:58.317Z,8.03
2023-05-14T03:34:58.318Z,7.98
2023-05-14T03:35:58.279Z,7.94
2023-05-14T03:36:58.277Z,8.03
2023-05-14T03:37:58.265Z,7.93
2023-05-14T03:38:58.289Z,7.94
2023-05-14T03:39:58.264Z,7.88
2023-05-14T03:40:58.264Z,7.93
2023-05-14T03:41:58.222Z,8.01
2023-05-14T03:42:58.263Z,8.03
2023-05-14T03:43:58.217Z,8.09
2023-05-14T03:44:58.227Z,8.06
2023-05-14T03:45:58.226Z,8.06
2023-05-14T03:46:58.211Z,8.10
2023-05-14T03:47:58.340Z,8.00
2023-05-14T03:48:58.351Z,8.00
2023-05-14T03:49:58.196Z,7.98
2023-05-14T03:50:58.179Z,7.98
2023-05-14T03:51:58.182Z,8.05
2023-05-14T03:52:58.174Z,8.01
2023-05-14T03:53:58.138Z,8.03
2023-05-14T03:54:58.168Z,8.13
2023-05-14T03:55:58.174Z,8.12
2023-05-14T03:56:58.134Z,8.13
2023-05-14T03:57:58.126Z,8.09
2023-05-14T03:58:58.152Z,8.09
2023-05-14T03:59:58.105Z,8.19
2023-05-14T04:00:58.142Z,8.20
2023-05-14T04:01:58.085Z,8.15
2023-05-14T04:02:58.250Z,8.24
2023-05-14T04:03:58.166Z,8.38
2023-05-14T04:04:58.117Z,8.52
2023-05-14T04:05:58.057Z,8.56
2023-05-14T04:06:58.109Z,8.70
2023-05-14T04:07:58.053Z,8.70
2023-05-14T04:08:58.089Z,8.79
2023-05-14T04:09:58.034Z,9.03
2023-05-14T04:10:58.039Z,9.44
2023-05-14T04:11:58.044Z,9.65
2023-05-14T04:12:58.022Z,9.64
2023-05-14T04:13:58.011Z,9.68
2023-05-14T04:14:58.033Z,9.37
2023-05-14T04:15:58.007Z,9.18
2023-05-14T04:16:59.533Z,9.10
2023-05-14T04:17:58.073Z,8.97
2023-05-14T04:18:58.023Z,8.99
2023-05-14T04:19:57.998Z,9.02
2023-05-14T04:20:58.010Z,9.06
2023-05-14T04:21:57.980Z,9.04
2023-05-14T04:22:57.959Z,9.00
2023-05-14T04:23:57.959Z,8.89
2023-05-14T04:24:57.970Z,8.91
2023-05-14T04:25:57.955Z,8.85
2023-05-14T04:26:57.934Z,8.88
2023-05-14T04:27:57.920Z,8.87
2023-05-14T04:28:57.928Z,8.64
2023-05-14T04:29:57.921Z,8.67
2023-05-14T04:30:57.934Z,8.66
2023-05-14T04:31:57.920Z,8.69
2023-05-14T04:32:57.987Z,8.70
2023-05-14T04:33:57.883Z,8.64
2023-05-14T04:34:57.906Z,8.56
2023-05-14T04:35:57.867Z,8.58
2023-05-14T04:36:57.880Z,8.61
2023-05-14T04:37:57.849Z,8.58
2023-05-14T04:38:57.876Z,8.60
2023-05-14T04:39:57.867Z,8.79
2023-05-14T04:40:57.852Z,8.70
2023-05-14T04:41:57.829Z,8.82
2023-05-14T04:42:57.840Z,8.76
2023-05-14T04:43:57.810Z,8.74
2023-05-14T04:44:57.853Z,8.66
2023-05-14T04:45:57.814Z,8.84
2023-05-14T04:46:57.799Z,8.82
2023-05-14T04:47:57.870Z,8.87
2023-05-14T04:48:57.801Z,8.91
2023-05-14T04:49:57.763Z,8.94
2023-05-14T04:50:57.789Z,8.89
2023-05-14T04:51:57.767Z,8.94
2023-05-14T04:52:57.757Z,9.04
2023-05-14T04:53:57.754Z,8.97
2023-05-14T04:54:57.890Z,9.00
2023-05-14T04:55:57.974Z,8.94
2023-05-14T04:56:57.909Z,9.06
2023-05-14T04:57:57.805Z,8.97
2023-05-14T04:58:57.814Z,9.11
2023-05-14T04:59:57.777Z,9.13
2023-05-14T05:00:57.874Z,9.21
2023-05-14T05:01:57.776Z,9.19
2023-05-14T05:02:57.793Z,9.26
2023-05-14T05:03:57.803Z,9.29
2023-05-14T05:04:57.738Z,9.28
2023-05-14T05:05:58.691Z,9.23
2023-05-14T05:06:57.662Z,9.37
2023-05-14T05:07:57.686Z,9.36
2023-05-14T05:08:58.081Z,9.43
2023-05-14T05:09:57.651Z,9.50
2023-05-14T05:10:57.671Z,9.54
2023-05-14T05:11:57.627Z,9.58
2023-05-14T05:12:57.693Z,9.56
2023-05-14T05:13:57.625Z,9.68
2023-05-14T05:14:57.633Z,9.84
2023-05-14T05:15:57.623Z,9.79
2023-05-14T05:16:57.619Z,9.73
2023-05-14T05:17:57.637Z,9.80
2023-05-14T05:18:57.655Z,9.79
2023-05-14T05:19:57.574Z,9.83
2023-05-14T05:20:57.582Z,9.80
2023-05-14T05:21:57.554Z,9.84
2023-05-14T05:22:57.574Z,9.94
2023-05-14T05:23:57.533Z,9.91
2023-05-14T05:24:57.572Z,9.87
2023-05-14T05:25:57.548Z,9.92
2023-05-14T05:26:57.561Z,10.02
2023-05-14T05:27:57.545Z,10.04
2023-05-14T05:28:57.535Z,10.23
2023-05-14T05:29:57.530Z,10.26
2023-05-14T05:30:57.529Z,10.31
2023-05-14T05:31:57.494Z,10.40
2023-05-14T05:32:57.629Z,10.61
2023-05-14T05:33:57.494Z,10.75
2023-05-14T05:34:57.536Z,10.64
2023-05-14T05:35:57.457Z,10.64
2023-05-14T05:36:57.494Z,10.69
2023-05-14T05:37:58.596Z,10.64
2023-05-14T05:38:57.450Z,10.63
2023-05-14T05:39:57.450Z,10.64
2023-05-14T05:40:57.475Z,10.69
2023-05-14T05:41:57.440Z,10.63
2023-05-14T05:42:57.419Z,10.59
2023-05-14T05:43:57.404Z,10.56
2023-05-14T05:44:57.410Z,10.64
2023-05-14T05:45:57.420Z,10.75
2023-05-14T05:46:57.652Z,10.89
2023-05-14T05:47:57.468Z,10.93
2023-05-14T05:48:57.406Z,10.99
2023-05-14T05:49:57.368Z,10.89
2023-05-14T05:50:57.372Z,11.00
2023-05-14T05:52:04.369Z,11.11
2023-05-14T05:52:57.351Z,11.26
2023-05-14T05:53:57.323Z,11.26
2023-05-14T05:54:57.349Z,11.29
2023-05-14T05:55:57.300Z,11.51
2023-05-14T05:56:57.312Z,11.62
2023-05-14T05:57:57.306Z,11.73
2023-05-14T05:58:57.314Z,11.81
2023-05-14T05:59:57.301Z,11.88
2023-05-14T06:00:57.292Z,12.15
2023-05-14T06:01:57.305Z,12.22
2023-05-14T06:02:57.333Z,12.35
2023-05-14T06:03:57.259Z,12.39
2023-05-14T06:04:57.313Z,12.46
2023-05-14T06:05:57.247Z,12.31
2023-05-14T06:06:57.268Z,12.29
2023-05-14T06:07:57.224Z,12.55
2023-05-14T06:08:57.226Z,12.75
2023-05-14T06:09:57.221Z,12.87
2023-05-14T06:10:57.228Z,12.79
2023-05-14T06:11:57.212Z,12.83
2023-05-14T06:12:57.225Z,12.76
2023-05-14T06:13:57.194Z,12.62
2023-05-14T06:14:57.196Z,12.64
2023-05-14T06:15:57.157Z,12.75
2023-05-14T06:16:57.206Z,12.91
2023-05-14T06:17:57.192Z,12.80
2023-05-14T06:18:57.188Z,12.95
2023-05-14T06:19:57.136Z,12.94
2023-05-14T06:20:57.168Z,13.19
2023-05-14T06:21:57.110Z,13.08
2023-05-14T06:22:57.118Z,13.46
2023-05-14T06:23:57.110Z,13.22
2023-05-14T06:24:57.108Z,13.13
2023-05-14T06:25:57.092Z,13.33
2023-05-14T06:26:57.122Z,13.60
2023-05-14T06:27:57.093Z,13.78
2023-05-14T06:28:57.113Z,13.79
2023-05-14T06:29:57.071Z,14.03
2023-05-14T06:30:57.069Z,14.29
2023-05-14T06:31:57.171Z,14.40
2023-05-14T06:32:57.081Z,14.66
2023-05-14T06:33:57.036Z,14.82
2023-05-14T06:34:57.048Z,15.11
2023-05-14T06:35:57.011Z,15.22
2023-05-14T06:36:57.026Z,15.17
2023-05-14T06:37:57.017Z,15.42
2023-05-14T06:38:57.015Z,15.61
2023-05-14T06:39:57.854Z,15.72
2023-05-14T06:40:56.979Z,15.83
2023-05-14T06:41:56.962Z,15.62
2023-05-14T06:42:56.992Z,15.65
2023-05-14T06:43:56.956Z,15.68
2023-05-14T06:44:56.943Z,16.00
2023-05-14T06:45:56.926Z,16.15
2023-05-14T06:46:56.929Z,16.01
2023-05-14T06:47:57.044Z,16.28
2023-05-14T06:48:59.348Z,16.53
2023-05-14T06:49:56.882Z,16.64
2023-05-14T06:50:56.910Z,16.91
2023-05-14T06:51:56.875Z,16.86
2023-05-14T06:52:56.883Z,17.09
2023-05-14T06:53:56.863Z,17.04
2023-05-14T06:54:56.881Z,17.60
2023-05-14T06:55:56.863Z,17.79
2023-05-14T06:56:56.838Z,17.70
2023-05-14T06:57:56.848Z,17.89
2023-05-14T06:58:56.860Z,18.75
2023-05-14T06:59:56.813Z,19.73
2023-05-14T07:00:56.834Z,20.31
2023-05-14T07:01:56.905Z,20.69
2023-05-14T07:02:56.825Z,20.47
2023-05-14T07:03:56.873Z,20.16
2023-05-14T07:04:56.800Z,20.16
2023-05-14T07:05:56.760Z,19.07
2023-05-14T07:06:56.831Z,17.95
2023-05-14T07:07:56.747Z,18.33
2023-05-14T07:08:56.748Z,19.11
2023-05-14T07:09:56.753Z,20.00
2023-05-14T07:10:56.740Z,20.43
2023-05-14T07:11:56.725Z,21.30
2023-05-14T07:12:56.736Z,20.63
2023-05-14T07:13:56.706Z,19.52
2023-05-14T07:14:56.705Z,19.41
2023-05-14T07:15:56.679Z,20.13
2023-05-14T07:16:56.726Z,20.48
2023-05-14T07:17:56.723Z,20.52
2023-05-14T07:18:56.728Z,20.99
2023-05-14T07:19:56.657Z,20.66
2023-05-14T07:20:56.659Z,21.17
2023-05-14T07:21:56.650Z,21.76
2023-05-14T07:22:56.662Z,22.29
2023-05-14T07:23:56.623Z,22.17
2023-05-14T07:24:56.653Z,21.80
2023-05-14T07:25:56.622Z,21.45
2023-05-14T07:26:56.620Z,20.69
2023-05-14T07:27:56.598Z,20.82
2023-05-14T07:28:56.598Z,21.06
2023-05-14T07:29:56.591Z,20.60
2023-05-14T07:30:56.664Z,20.44
2023-05-14T07:31:56.583Z,20.11
2023-05-14T07:32:56.614Z,19.84
2023-05-14T07:33:56.591Z,19.48
2023-05-14T07:34:56.588Z,20.03
2023-05-14T07:35:56.551Z,20.66
2023-05-14T07:36:56.554Z,20.24
2023-05-14T07:37:56.539Z,19.89
2023-05-14T07:38:56.575Z,19.63
2023-05-14T07:39:56.516Z,20.40
2023-05-14T07:40:56.545Z,21.09
2023-05-14T07:41:56.497Z,20.92
2023-05-14T07:42:56.508Z,20.14
2023-05-14T07:43:56.524Z,20.66
2023-05-14T07:44:56.511Z,20.41
2023-05-14T07:45:56.504Z,20.09
2023-05-14T07:46:56.528Z,19.54
2023-05-14T07:47:56.606Z,19.88
2023-05-14T07:48:56.480Z,19.14
2023-05-14T07:49:56.477Z,18.88
2023-05-14T07:50:56.471Z,18.56
2023-05-14T07:51:56.474Z,18.60
2023-05-14T07:52:56.449Z,20.03
2023-05-14T07:53:56.415Z,19.31
2023-05-14T07:54:56.434Z,18.33
2023-05-14T07:55:56.402Z,17.98
2023-05-14T07:56:56.427Z,17.76
2023-05-14T07:57:56.393Z,17.49
2023-05-14T07:58:56.433Z,17.12
2023-05-14T07:59:56.389Z,17.01
2023-05-14T08:00:56.383Z,17.29
2023-05-14T08:01:56.401Z,17.46
2023-05-14T08:02:56.566Z,18.04
2023-05-14T08:03:56.433Z,19.11
2023-05-14T08:04:56.362Z,19.63
2023-05-14T08:05:56.345Z,19.59
2023-05-14T08:06:56.347Z,20.09
2023-05-14T08:07:56.329Z,19.39
2023-05-14T08:08:56.344Z,19.88
2023-05-14T08:09:56.311Z,20.31
2023-05-14T08:10:56.342Z,20.48
2023-05-14T08:11:56.304Z,20.99
2023-05-14T08:12:56.311Z,21.72
2023-05-14T08:13:56.301Z,21.72
2023-05-14T08:14:56.327Z,20.67
2023-05-14T08:15:56.275Z,20.92
2023-05-14T08:16:56.340Z,21.43
2023-05-14T08:17:56.280Z,21.09
2023-05-14T08:18:56.323Z,21.27
2023-05-14T08:19:56.248Z,21.46
2023-05-14T08:20:56.276Z,21.69
2023-05-14T08:21:56.257Z,21.24
2023-05-14T08:22:56.239Z,21.32
2023-05-14T08:23:56.257Z,21.27
2023-05-14T08:24:56.238Z,21.24
2023-05-14T08:25:56.204Z,21.21
2023-05-14T08:26:56.241Z,21.85
2023-05-14T08:27:56.190Z,21.72
2023-05-14T08:28:56.219Z,21.45
2023-05-14T08:29:56.185Z,21.29
2023-05-14T08:30:56.274Z,21.67
2023-05-14T08:31:56.168Z,22.20
2023-05-14T08:32:56.195Z,22.10
2023-05-14T08:33:56.189Z,22.08
2023-05-14T08:34:56.143Z,21.95
2023-05-14T08:35:56.135Z,21.70
2023-05-14T08:36:56.141Z,21.46
2023-05-14T08:37:56.107Z,21.05
2023-05-14T08:38:56.168Z,20.00
2023-05-14T08:39:56.195Z,19.77
2023-05-14T08:40:56.114Z,19.36
2023-05-14T08:41:56.140Z,19.51
2023-05-14T08:42:56.135Z,20.85
2023-05-14T08:43:56.101Z,22.20
2023-05-14T08:44:56.101Z,21.82
2023-05-14T08:45:56.063Z,21.66
2023-05-14T08:46:56.093Z,21.24
2023-05-14T08:47:56.144Z,19.73
2023-05-14T08:48:56.112Z,18.98
2023-05-14T08:49:56.054Z,18.73
2023-05-14T08:50:56.073Z,19.21
2023-05-14T08:51:56.005Z,20.22
2023-05-14T08:52:56.056Z,20.51
2023-05-14T08:53:55.990Z,20.44
2023-05-14T08:54:56.022Z,20.82
2023-05-14T08:55:56.040Z,20.47
2023-05-14T08:56:56.019Z,20.04
2023-05-14T08:57:55.964Z,19.62
2023-05-14T08:58:55.980Z,19.36
2023-05-14T08:59:55.950Z,19.92
2023-05-14T09:00:55.954Z,20.03
2023-05-14T09:01:56.038Z,21.48
2023-05-14T09:02:55.966Z,22.00
2023-05-14T09:03:56.013Z,21.77
2023-05-14T09:04:55.952Z,21.69
2023-05-14T09:05:56.715Z,21.43
2023-05-14T09:06:55.945Z,20.85
2023-05-14T09:07:55.897Z,21.62
2023-05-14T09:08:55.943Z,22.43
2023-05-14T09:09:55.897Z,22.99
2023-05-14T09:10:55.916Z,24.02
2023-05-14T09:11:55.874Z,24.77
2023-05-14T09:12:55.875Z,24.10
2023-05-14T09:13:55.858Z,24.36
2023-05-14T09:14:55.900Z,24.21
2023-05-14T09:15:55.896Z,24.50
2023-05-14T09:16:55.833Z,24.73
2023-05-14T09:17:55.883Z,23.39
2023-05-14T09:18:55.875Z,22.53
2023-05-14T09:19:55.818Z,21.95
2023-05-14T09:20:55.838Z,21.33
2023-05-14T09:21:55.846Z,21.29
2023-05-14T09:22:55.844Z,21.55
2023-05-14T09:23:55.763Z,21.46
2023-05-14T09:24:55.809Z,21.09
2023-05-14T09:25:55.762Z,21.50
2023-05-14T09:26:55.774Z,21.61
2023-05-14T09:27:57.953Z,21.95
2023-05-14T09:28:55.760Z,22.32
2023-05-14T09:29:55.730Z,22.28
2023-05-14T09:30:55.754Z,21.98
2023-05-14T09:31:55.784Z,20.78
2023-05-14T09:32:55.819Z,20.37
2023-05-14T09:33:55.704Z,20.02
2023-05-14T09:34:55.720Z,19.71
2023-05-14T09:35:57.675Z,19.73
2023-05-14T09:36:55.722Z,19.49
2023-05-14T09:37:55.675Z,19.55
2023-05-14T09:38:55.684Z,19.66
2023-05-14T09:39:55.672Z,19.39
2023-05-14T09:40:55.711Z,19.64
2023-05-14T09:41:55.644Z,19.67
2023-05-14T09:42:55.671Z,19.55
2023-05-14T09:43:55.659Z,19.56
2023-05-14T09:44:55.649Z,19.27
2023-05-14T09:45:55.612Z,19.41
2023-05-14T09:46:55.680Z,19.58
2023-05-14T09:47:55.799Z,20.04
2023-05-14T09:48:55.620Z,19.86
2023-05-14T09:49:55.590Z,19.56
2023-05-14T09:50:55.627Z,19.40
2023-05-14T09:51:55.570Z,19.22
2023-05-14T09:52:55.592Z,18.95
2023-05-14T09:53:55.613Z,18.92
2023-05-14T09:54:55.576Z,19.14
2023-05-14T09:55:55.547Z,19.51
2023-05-14T09:56:55.971Z,19.51
2023-05-14T09:57:55.526Z,19.79
2023-05-14T09:58:55.545Z,20.69
2023-05-14T09:59:55.546Z,21.50
2023-05-14T10:00:55.552Z,21.70
2023-05-14T10:01:55.496Z,21.69
2023-05-14T10:02:55.537Z,21.06
2023-05-14T10:03:55.530Z,20.26
2023-05-14T10:04:55.522Z,20.18
2023-05-14T10:05:55.512Z,20.13
2023-05-14T10:06:55.492Z,20.02
2023-05-14T10:07:55.460Z,20.51
2023-05-14T10:08:55.475Z,20.59
2023-05-14T10:09:57.185Z,20.50
2023-05-14T10:10:55.455Z,20.09
2023-05-14T10:11:55.426Z,20.16
2023-05-14T10:12:55.459Z,19.92
2023-05-14T10:13:55.434Z,19.82
2023-05-14T10:14:55.443Z,19.71
2023-05-14T10:15:55.400Z,19.95
2023-05-14T10:16:55.462Z,19.58
2023-05-14T10:17:55.449Z,19.62
2023-05-14T10:18:57.317Z,19.71
2023-05-14T10:19:55.369Z,19.54
2023-05-14T10:20:55.378Z,19.33
2023-05-14T10:21:55.369Z,20.40
2023-05-14T10:22:55.381Z,21.33
2023-05-14T10:23:55.357Z,21.43
2023-05-14T10:24:55.398Z,20.92
2023-05-14T10:25:55.343Z,21.05
2023-05-14T10:26:55.340Z,20.75
2023-05-14T10:27:55.324Z,20.59
2023-05-14T10:28:55.324Z,19.94
2023-05-14T10:29:55.349Z,20.03
2023-05-14T10:30:55.317Z,20.07
2023-05-14T10:31:55.279Z,20.10
2023-05-14T10:32:55.350Z,19.51
2023-05-14T10:33:55.272Z,19.59
2023-05-14T10:34:55.283Z,20.11
2023-05-14T10:35:55.276Z,21.25
2023-05-14T10:36:55.274Z,21.91
2023-05-14T10:37:55.260Z,22.02
2023-05-14T10:38:55.268Z,21.66
2023-05-14T10:39:55.232Z,21.77
2023-05-14T10:40:55.236Z,22.63
2023-05-14T10:41:55.218Z,22.11
2023-05-14T10:42:55.218Z,20.97
2023-05-14T10:43:55.231Z,20.66
2023-05-14T10:44:55.235Z,20.65
2023-05-14T10:45:55.192Z,20.47
2023-05-14T10:46:55.243Z,20.31
2023-05-14T10:47:55.260Z,20.37
2023-05-14T10:48:55.196Z,20.41
2023-05-14T10:49:55.153Z,20.62
2023-05-14T10:50:55.205Z,20.58
2023-05-14T10:51:55.157Z,20.25
2023-05-14T10:52:55.199Z,20.48
2023-05-14T10:53:55.159Z,20.67
2023-05-14T10:54:55.141Z,20.65
2023-05-14T10:55:55.121Z,20.59
2023-05-14T10:56:55.121Z,20.13
2023-05-14T10:57:55.137Z,19.52
2023-05-14T10:58:55.101Z,19.55
2023-05-14T10:59:55.176Z,19.59
2023-05-14T11:00:55.103Z,19.91
2023-05-14T11:01:55.162Z,20.10
2023-05-14T11:02:55.170Z,20.28
2023-05-14T11:03:55.163Z,20.60
2023-05-14T11:04:55.063Z,20.59
2023-05-14T11:05:55.067Z,20.92
2023-05-14T11:06:55.070Z,20.78
2023-05-14T11:07:55.032Z,20.66
2023-05-14T11:08:55.045Z,20.88
2023-05-14T11:09:55.015Z,20.80
2023-05-14T11:10:55.036Z,21.58
2023-05-14T11:11:55.010Z,21.93
2023-05-14T11:12:55.021Z,21.89
2023-05-14T11:13:55.037Z,22.13
2023-05-14T11:14:54.989Z,22.20
2023-05-14T11:15:54.978Z,21.54
2023-05-14T11:16:55.000Z,20.93
2023-05-14T11:17:54.988Z,21.15
2023-05-14T11:18:55.300Z,21.43
2023-05-14T11:19:54.946Z,22.07
2023-05-14T11:20:54.953Z,21.96
2023-05-14T11:21:54.979Z,21.98
2023-05-14T11:22:54.946Z,22.04
2023-05-14T11:23:54.963Z,21.91
2023-05-14T11:24:54.951Z,22.45
2023-05-14T11:25:54.978Z,22.23
2023-05-14T11:26:54.915Z,22.17
2023-05-14T11:27:54.904Z,22.57
2023-05-14T11:28:54.907Z,22.35
2023-05-14T11:29:54.867Z,22.99
2023-05-14T11:30:54.916Z,22.66
2023-05-14T11:31:54.865Z,22.66
2023-05-14T11:32:54.934Z,22.78
2023-05-14T11:33:54.883Z,22.23
2023-05-14T11:34:54.866Z,22.25
2023-05-14T11:35:54.838Z,22.55
2023-05-14T11:36:54.857Z,22.35
2023-05-14T11:37:54.825Z,22.20
2023-05-14T11:38:54.860Z,22.22
2023-05-14T11:39:54.807Z,22.14
2023-05-14T11:40:54.816Z,22.06
2023-05-14T11:41:54.781Z,21.58
2023-05-14T11:42:54.790Z,21.15
2023-05-14T11:43:54.777Z,21.05
2023-05-14T11:44:54.803Z,21.20
2023-05-14T11:45:54.775Z,21.05
2023-05-14T11:46:54.773Z,20.70
2023-05-14T11:47:54.831Z,20.70
2023-05-14T11:48:54.771Z,20.97
2023-05-14T11:49:54.742Z,21.03
2023-05-14T11:50:54.745Z,20.82
2023-05-14T11:51:54.709Z,20.22
2023-05-14T11:52:54.761Z,20.48
2023-05-14T11:53:54.744Z,20.40
2023-05-14T11:54:54.722Z,20.47
2023-05-14T11:55:54.690Z,20.60
2023-05-14T11:56:54.691Z,20.92
2023-05-14T11:57:54.684Z,20.81
2023-05-14T11:58:54.677Z,20.82
2023-05-14T11:59:54.693Z,20.52
2023-05-14T12:00:54.654Z,20.59
2023-05-14T12:01:54.668Z,20.65
2023-05-14T12:02:54.712Z,20.70
2023-05-14T12:03:54.678Z,20.78
2023-05-14T12:04:54.679Z,20.84
2023-05-14T12:05:54.635Z,20.96
2023-05-14T12:06:54.615Z,21.12
2023-05-14T12:07:54.598Z,20.90
2023-05-14T12:08:54.618Z,20.40
2023-05-14T12:09:54.587Z,20.62
2023-05-14T12:10:54.624Z,20.92
2023-05-14T12:11:54.574Z,21.29
2023-05-14T12:12:54.631Z,21.48
2023-05-14T12:13:54.557Z,21.42
2023-05-14T12:14:54.557Z,21.06
2023-05-14T12:15:54.593Z,20.90
2023-05-14T12:16:54.574Z,20.25
2023-05-14T12:17:54.573Z,20.39
2023-05-14T12:18:54.570Z,20.60
2023-05-14T12:19:54.518Z,20.77
2023-05-14T12:20:54.558Z,21.02
2023-05-14T12:21:54.534Z,21.27
2023-05-14T12:22:54.516Z,20.92
2023-05-14T12:23:54.497Z,20.84
2023-05-14T12:24:54.540Z,20.75
2023-05-14T12:25:54.493Z,20.96
2023-05-14T12:26:54.540Z,21.20
2023-05-14T12:27:54.470Z,20.87
2023-05-14T12:28:54.490Z,20.81
2023-05-14T12:29:54.454Z,20.97
2023-05-14T12:30:54.459Z,21.21
2023-05-14T12:31:54.470Z,21.20
2023-05-14T12:32:54.573Z,21.40
2023-05-14T12:33:54.423Z,21.43
2023-05-14T12:34:54.473Z,21.66
2023-05-14T12:35:54.446Z,21.45
2023-05-14T12:36:54.442Z,21.33
2023-05-14T12:37:54.425Z,20.74
2023-05-14T12:38:54.451Z,20.70
2023-05-14T12:39:54.379Z,20.65
2023-05-14T12:40:54.398Z,20.18
2023-05-14T12:41:54.371Z,19.79
2023-05-14T12:42:56.577Z,20.07
2023-05-14T12:43:54.394Z,19.91
2023-05-14T12:44:54.366Z,20.03
2023-05-14T12:45:54.398Z,20.32
2023-05-14T12:46:54.415Z,20.02
2023-05-14T12:47:54.366Z,20.07
2023-05-14T12:48:54.352Z,20.18
2023-05-14T12:49:54.314Z,19.92
2023-05-14T12:50:54.361Z,19.91
2023-05-14T12:52:03.176Z,19.71
2023-05-14T12:52:55.370Z,19.85
2023-05-14T12:53:54.316Z,19.54
2023-05-14T12:54:54.400Z,19.24
2023-05-14T12:55:54.311Z,19.07
2023-05-14T12:56:54.280Z,19.09
2023-05-14T12:57:54.261Z,19.14
2023-05-14T12:58:54.285Z,18.92
2023-05-14T12:59:54.248Z,18.84
2023-05-14T13:00:54.343Z,18.78
2023-05-14T13:01:54.224Z,18.88
2023-05-14T13:02:54.266Z,18.96
2023-05-14T13:03:54.252Z,18.96